Chiricana — 3EKU3 — position and weather

sailwx.info

Track history (hours):
 
Tides and Currents Weather Stations Pressure Air Temp Water Temp Dewpoint Dewpoint Depression Visibility Wind Speed Wind Dir Waves Ship Positions

Chiricana

Last reported at 2015-Aug-20 21:17 UTC. Time now 2015-Sep-01 20:19 UTC.
Position N 31°24' E 032°20'.
Warning: this ship's position is 11 days out of date.

Length 300 m; draft 12.3 m.

Type: Ship (hazmat cat A). MMSI: 372829000.

Date/timePositionNaut miles runAvg speedWind from/ knotsBaromVisibWave heightAir tempDewpointWater temp
2015-Aug-20 21:17N 31°24' E 032°20'0 0.0
2015-Aug-20 18:23N 31°24' E 032°20'0 0.0
2015-Aug-20 17:20N 31°24' E 032°20'0 0.0
2015-Aug-20 13:08N 31°24' E 032°20'36 6.5
2015-Aug-20 07:33N 31°48' E 031°47'2814.0
2015-Aug-20 05:32N 31°60' E 031°17'2020.4
2015-Aug-20 04:34N 32°07' E 030°55'2120.3
2015-Aug-20 03:32N 32°13' E 030°32'1715.9
2015-Aug-20 02:29N 32°18' E 030°12'2613.5
2015-Aug-20 00:33N 32°25' E 029°43'1313.3
2015-Aug-19 23:33N 32°29' E 029°28'1513.4
2015-Aug-19 22:26N 32°34' E 029°11'5513.7
2015-Aug-19 18:23N 32°49' E 028°08'1214.3
2015-Aug-19 17:34N 32°53' E 027°54'4414.5
2015-Aug-19 14:30N 33°05' E 027°04'2114.6
2015-Aug-19 13:03N 33°12' E 026°39'52714.7
2015-Aug-18 01:06N 35°42' E 016°27'2613.8
2015-Aug-17 23:14N 35°50' E 015°56'1013.7
2015-Aug-17 22:30N 35°53' E 015°44'1313.9
2015-Aug-17 21:33N 35°56' E 015°29'1513.8
2015-Aug-17 20:27N 36°01' E 015°11'1413.7
2015-Aug-17 19:27N 36°05' E 014°55'1213.6
2015-Aug-17 18:33N 36°08' E 014°40'1313.4
2015-Aug-17 17:33N 36°12' E 014°24'1413.5
2015-Aug-17 16:33N 36°17' E 014°09'1413.8
2015-Aug-17 15:33N 36°23' E 013°53'1413.8
2015-Aug-17 14:33N 36°28' E 013°37'1413.6
2015-Aug-17 13:31N 36°34' E 013°21'1413.7
2015-Aug-17 12:30N 36°39' E 013°05'1515.5
2015-Aug-17 11:32N 36°45' E 012°48'65415.6
2015-Aug-15 17:32N 36°31' W 000°47'1515.0
2015-Aug-15 16:32N 36°28' W 001°05'7515.2
2015-Aug-15 11:33N 36°16' W 002°38'1615.9
2015-Aug-15 10:33N 36°14' W 002°57'2121.3
2015-Aug-15 09:33N 36°11' W 003°24'2120.6
2015-Aug-15 08:32N 36°07' W 003°49'22716.0
2015-Aug-14 18:19N 36°15' W 008°31'1615.0
2015-Aug-14 17:13N 36°19' W 008°51'2915.0
2015-Aug-14 15:16N 36°24' W 009°26'1114.7
2015-Aug-14 14:33N 36°26' W 009°39'2315.2
2015-Aug-14 13:03N 36°32' W 010°06'4015.3
2015-Aug-14 10:25N 36°43' W 010°55'1819.9
2015-Aug-14 09:30N 36°47' W 011°17'1818.9
2015-Aug-14 08:33N 36°51' W 011°39'62115.0
2015-Aug-12 15:09N 38°42' W 024°32'813.6
2015-Aug-12 14:33N 38°43' W 024°42'1413.7
2015-Aug-12 13:33N 38°44' W 024°60'1413.9
2015-Aug-12 12:34N 38°45' W 025°17'1414.2
2015-Aug-12 11:33N 38°47' W 025°36'1918.7
2015-Aug-12 10:33N 38°49' W 025°59'1818.0
2015-Aug-12 09:33N 38°50' W 026°22'1414.0
2015-Aug-12 08:31N 38°52' W 026°41'1313.8
2015-Aug-12 07:33N 38°53' W 026°58'1413.8
2015-Aug-12 06:34N 38°54' W 027°16'1413.6
2015-Aug-12 05:33N 38°54' W 027°33'1413.9
2015-Aug-12 04:33N 38°54' W 027°51'1414.3
2015-Aug-12 03:33N 38°55' W 028°09'1414.0
2015-Aug-12 02:33N 38°56' W 028°27'1414.4
2015-Aug-12 01:33N 38°57' W 028°46'1414.1
2015-Aug-12 00:33N 38°57' W 029°04'1414.3
2015-Aug-11 23:33N 38°58' W 029°22'1414.5
2015-Aug-11 22:33N 38°59' W 029°41'1414.3
2015-Aug-11 21:33N 39°00' W 029°59'1414.2
2015-Aug-11 20:33N 39°01' W 030°17'1414.2
2015-Aug-11 19:33N 39°02' W 030°36'1514.4
2015-Aug-11 18:33N 39°02' W 030°54'1414.4
2015-Aug-11 17:34N 39°03' W 031°13'1414.3
2015-Aug-11 16:33N 39°04' W 031°31'1414.0
2015-Aug-11 15:33N 39°04' W 031°49'1614.3
2015-Aug-11 14:25N 39°05' W 032°10'  
Track history (hours):
 
Tides and Currents Weather Stations Pressure Air Temp Water Temp Dewpoint Dewpoint Depression Visibility Wind Speed Wind Dir Waves Ship Positions

Chiricana

Last reported at 2015-Aug-20 21:17 UTC. Time now 2015-Sep-01 20:19 UTC.
Position N 31°24' E 032°20'.
Warning: this ship's position is 11 days out of date.

Length 300 m; draft 12.3 m.

Type: Ship (hazmat cat A). MMSI: 372829000.

Date/timePositionNaut miles runAvg speedWind from/ knotsBaromVisibWave heightAir tempDewpointWater temp
2015-Aug-20 21:17N 31°24' E 032°20'0 0.0
2015-Aug-20 18:23N 31°24' E 032°20'0 0.0
2015-Aug-20 17:20N 31°24' E 032°20'0 0.0
2015-Aug-20 13:08N 31°24' E 032°20'36 6.5
2015-Aug-20 07:33N 31°48' E 031°47'2814.0
2015-Aug-20 05:32N 31°60' E 031°17'2020.4
2015-Aug-20 04:34N 32°07' E 030°55'2120.3
2015-Aug-20 03:32N 32°13' E 030°32'1715.9
2015-Aug-20 02:29N 32°18' E 030°12'2613.5
2015-Aug-20 00:33N 32°25' E 029°43'1313.3
2015-Aug-19 23:33N 32°29' E 029°28'1513.4
2015-Aug-19 22:26N 32°34' E 029°11'5513.7
2015-Aug-19 18:23N 32°49' E 028°08'1214.3
2015-Aug-19 17:34N 32°53' E 027°54'4414.5
2015-Aug-19 14:30N 33°05' E 027°04'2114.6
2015-Aug-19 13:03N 33°12' E 026°39'52714.7
2015-Aug-18 01:06N 35°42' E 016°27'2613.8
2015-Aug-17 23:14N 35°50' E 015°56'1013.7
2015-Aug-17 22:30N 35°53' E 015°44'1313.9
2015-Aug-17 21:33N 35°56' E 015°29'1513.8
2015-Aug-17 20:27N 36°01' E 015°11'1413.7
2015-Aug-17 19:27N 36°05' E 014°55'1213.6
2015-Aug-17 18:33N 36°08' E 014°40'1313.4
2015-Aug-17 17:33N 36°12' E 014°24'1413.5
2015-Aug-17 16:33N 36°17' E 014°09'1413.8
2015-Aug-17 15:33N 36°23' E 013°53'1413.8
2015-Aug-17 14:33N 36°28' E 013°37'1413.6
2015-Aug-17 13:31N 36°34' E 013°21'1413.7
2015-Aug-17 12:30N 36°39' E 013°05'1515.5
2015-Aug-17 11:32N 36°45' E 012°48'65415.6
2015-Aug-15 17:32N 36°31' W 000°47'1515.0
2015-Aug-15 16:32N 36°28' W 001°05'7515.2
2015-Aug-15 11:33N 36°16' W 002°38'1615.9
2015-Aug-15 10:33N 36°14' W 002°57'2121.3
2015-Aug-15 09:33N 36°11' W 003°24'2120.6
2015-Aug-15 08:32N 36°07' W 003°49'22716.0
2015-Aug-14 18:19N 36°15' W 008°31'1615.0
2015-Aug-14 17:13N 36°19' W 008°51'2915.0
2015-Aug-14 15:16N 36°24' W 009°26'1114.7
2015-Aug-14 14:33N 36°26' W 009°39'2315.2
2015-Aug-14 13:03N 36°32' W 010°06'4015.3
2015-Aug-14 10:25N 36°43' W 010°55'1819.9
2015-Aug-14 09:30N 36°47' W 011°17'1818.9
2015-Aug-14 08:33N 36°51' W 011°39'62115.0
2015-Aug-12 15:09N 38°42' W 024°32'813.6
2015-Aug-12 14:33N 38°43' W 024°42'1413.7
2015-Aug-12 13:33N 38°44' W 024°60'1413.9
2015-Aug-12 12:34N 38°45' W 025°17'1414.2
2015-Aug-12 11:33N 38°47' W 025°36'1918.7
2015-Aug-12 10:33N 38°49' W 025°59'1818.0
2015-Aug-12 09:33N 38°50' W 026°22'1414.0
2015-Aug-12 08:31N 38°52' W 026°41'1313.8
2015-Aug-12 07:33N 38°53' W 026°58'1413.8
2015-Aug-12 06:34N 38°54' W 027°16'1413.6
2015-Aug-12 05:33N 38°54' W 027°33'1413.9
2015-Aug-12 04:33N 38°54' W 027°51'1414.3
2015-Aug-12 03:33N 38°55' W 028°09'1414.0
2015-Aug-12 02:33N 38°56' W 028°27'1414.4
2015-Aug-12 01:33N 38°57' W 028°46'1414.1
2015-Aug-12 00:33N 38°57' W 029°04'1414.3
2015-Aug-11 23:33N 38°58' W 029°22'1414.5
2015-Aug-11 22:33N 38°59' W 029°41'1414.3
2015-Aug-11 21:33N 39°00' W 029°59'1414.2
2015-Aug-11 20:33N 39°01' W 030°17'1414.2
2015-Aug-11 19:33N 39°02' W 030°36'1514.4
2015-Aug-11 18:33N 39°02' W 030°54'1414.4
2015-Aug-11 17:34N 39°03' W 031°13'1414.3
2015-Aug-11 16:33N 39°04' W 031°31'1414.0
2015-Aug-11 15:33N 39°04' W 031°49'1614.3
2015-Aug-11 14:25N 39°05' W 032°10'  

Dump ship's entire track history